ADDS METAR Data

Data at: 0744 UTC 24 Oct 2017

METAR for:KWVL (Waterville/Lafleur A, ME, US)
Text:KWVL 240739Z AUTO 20003KT 3SM BR OVC003 14/14 A3010 RMK AO2 RAB0658E22 P0000
Temperature: 14.0°C ( 57°F)
Dewpoint: 14.0°C ( 57°F) [RH = 100%]
Pressure (altimeter):30.10 inches Hg (1019.4 mb)
Winds:from the SSW (200 degrees) at 3 MPH (3 knots; 1.5 m/s)
Visibility: 3 sm ( 5 km)
Ceiling:300 feet AGL
Clouds: overcast cloud deck at 300 feet AGL
Weather:BR (mist)
QC Flag:automated observation with no human augmentation